createdAt,value
2023-04-30T00:00:13.423Z,78.69
2023-04-30T00:02:41.528Z,78.79
2023-04-30T00:05:09.739Z,78.85
2023-04-30T00:07:37.293Z,78.91
2023-04-30T00:10:05.636Z,79.12
2023-04-30T00:12:33.154Z,79.26
2023-04-30T00:15:01.651Z,79.08
2023-04-30T00:17:29.634Z,79.30
2023-04-30T00:19:57.327Z,79.76
2023-04-30T00:22:24.865Z,80.34
2023-04-30T00:24:52.681Z,80.44
2023-04-30T00:27:20.205Z,80.53
2023-04-30T00:29:47.708Z,80.43
2023-04-30T00:32:15.640Z,80.49
2023-04-30T00:34:43.280Z,80.21
2023-04-30T00:37:10.833Z,80.25
2023-04-30T00:39:38.736Z,80.18
2023-04-30T00:42:06.358Z,80.15
2023-04-30T00:44:33.832Z,80.04
2023-04-30T00:47:01.585Z,80.32
2023-04-30T00:49:29.134Z,80.38
2023-04-30T00:51:56.725Z,80.36
2023-04-30T00:54:25.536Z,80.66
2023-04-30T00:56:53.191Z,80.39
2023-04-30T00:59:21.406Z,80.38
2023-04-30T01:01:49.302Z,80.48
2023-04-30T01:04:17.582Z,80.24
2023-04-30T01:06:46.703Z,80.12
2023-04-30T01:09:14.589Z,80.17
2023-04-30T01:12:13.308Z,80.04
2023-04-30T01:15:08.745Z,80.09
2023-04-30T01:17:45.396Z,80.20
2023-04-30T01:20:13.801Z,80.37
2023-04-30T01:22:55.611Z,80.45
2023-04-30T01:25:26.629Z,80.33
2023-04-30T01:28:06.819Z,80.45
2023-04-30T01:30:35.815Z,80.54
2023-04-30T01:33:04.120Z,80.50
2023-04-30T01:36:00.078Z,80.53
2023-04-30T01:38:57.064Z,80.45
2023-04-30T01:41:34.267Z,80.60
2023-04-30T01:44:31.472Z,80.76
2023-04-30T01:47:24.938Z,80.95
2023-04-30T01:50:25.155Z,81.23
2023-04-30T01:52:54.640Z,81.25
2023-04-30T01:55:30.015Z,81.32
2023-04-30T01:57:59.807Z,81.37
2023-04-30T02:00:30.589Z,81.59
2023-04-30T02:02:59.512Z,81.48
2023-04-30T02:05:27.143Z,81.54
2023-04-30T02:07:54.857Z,81.61
2023-04-30T02:10:25.123Z,81.78
2023-04-30T02:12:53.502Z,81.81
2023-04-30T02:15:21.003Z,82.04
2023-04-30T02:17:48.933Z,82.19
2023-04-30T02:20:16.639Z,82.25
2023-04-30T02:22:44.399Z,82.13
2023-04-30T02:25:15.233Z,82.18
2023-04-30T02:27:42.790Z,82.34
2023-04-30T02:30:10.702Z,82.28
2023-04-30T02:32:38.648Z,82.26
2023-04-30T02:35:06.468Z,82.17
2023-04-30T02:37:33.985Z,82.33
2023-04-30T02:40:01.880Z,82.19
2023-04-30T02:42:29.365Z,82.16
2023-04-30T02:44:56.879Z,82.18
2023-04-30T02:47:24.725Z,82.00
2023-04-30T02:49:52.460Z,82.09
2023-04-30T02:52:20.411Z,82.22
2023-04-30T02:54:48.342Z,82.05
2023-04-30T02:57:15.817Z,81.81
2023-04-30T02:59:46.067Z,81.85
2023-04-30T03:02:14.538Z,81.79
2023-04-30T03:04:42.092Z,81.60
2023-04-30T03:07:09.553Z,81.27
2023-04-30T03:09:37.319Z,81.11
2023-04-30T03:12:05.200Z,81.10
2023-04-30T03:14:32.791Z,81.03
2023-04-30T03:17:00.637Z,80.92
2023-04-30T03:19:29.033Z,80.70
2023-04-30T03:21:56.680Z,80.64
2023-04-30T03:24:25.299Z,80.44
2023-04-30T03:26:52.870Z,80.28
2023-04-30T03:29:20.502Z,80.22
2023-04-30T03:31:48.485Z,80.30
2023-04-30T03:34:16.251Z,80.31
2023-04-30T03:36:43.768Z,80.32
2023-04-30T03:39:11.821Z,80.26
2023-04-30T03:41:39.296Z,79.99
2023-04-30T03:44:08.788Z,80.00
2023-04-30T03:46:36.728Z,79.86
2023-04-30T03:49:04.381Z,79.78
2023-04-30T03:51:32.005Z,79.63
2023-04-30T03:53:59.965Z,79.95
2023-04-30T03:56:27.560Z,79.87
2023-04-30T03:58:55.170Z,79.98
2023-04-30T04:01:23.293Z,79.91
2023-04-30T04:03:51.422Z,79.76
2023-04-30T04:06:19.024Z,79.82
2023-04-30T04:08:47.015Z,79.88
2023-04-30T04:11:15.030Z,79.87
2023-04-30T04:13:42.538Z,79.89
2023-04-30T04:16:10.094Z,80.03
2023-04-30T04:18:39.145Z,80.00
2023-04-30T04:21:07.787Z,79.92
2023-04-30T04:23:35.527Z,80.03
2023-04-30T04:26:03.429Z,80.07
2023-04-30T04:28:31.257Z,80.11
2023-04-30T04:30:59.682Z,79.97
2023-04-30T04:33:28.025Z,79.74
2023-04-30T04:35:57.964Z,79.61
2023-04-30T04:38:26.352Z,79.72
2023-04-30T04:40:55.209Z,79.82
2023-04-30T04:43:22.925Z,79.67
2023-04-30T04:45:50.695Z,79.74
2023-04-30T04:48:18.891Z,79.79
2023-04-30T04:50:46.520Z,79.76
2023-04-30T04:53:14.188Z,79.82
2023-04-30T04:55:41.992Z,79.75
2023-04-30T04:58:09.559Z,79.73
2023-04-30T05:00:37.626Z,79.64
2023-04-30T05:03:05.533Z,79.80
2023-04-30T05:05:33.071Z,79.58
2023-04-30T05:08:00.610Z,79.51
2023-04-30T05:10:28.360Z,79.39
2023-04-30T05:12:55.997Z,79.56
2023-04-30T05:15:23.707Z,79.56
2023-04-30T05:17:51.597Z,79.45
2023-04-30T05:20:19.110Z,79.41
2023-04-30T05:22:46.681Z,79.31
2023-04-30T05:25:14.534Z,79.07
2023-04-30T05:27:42.113Z,79.00
2023-04-30T05:30:10.268Z,78.69
2023-04-30T05:32:38.221Z,78.94
2023-04-30T05:35:06.106Z,78.62
2023-04-30T05:37:33.803Z,78.71
2023-04-30T05:40:01.640Z,78.39
2023-04-30T05:42:29.301Z,78.25
2023-04-30T05:44:56.812Z,78.29
2023-04-30T05:47:24.600Z,78.01
2023-04-30T05:49:52.286Z,77.90
2023-04-30T05:52:19.882Z,77.61
2023-04-30T05:54:52.631Z,77.87
2023-04-30T05:57:21.395Z,77.71
2023-04-30T05:59:49.298Z,77.72
2023-04-30T06:02:16.859Z,77.40
2023-04-30T06:04:44.934Z,77.18
2023-04-30T06:07:13.307Z,76.72
2023-04-30T06:09:40.968Z,76.10
2023-04-30T06:12:08.866Z,76.12
2023-04-30T06:14:36.501Z,75.91
2023-04-30T06:17:04.017Z,75.99
2023-04-30T06:19:31.809Z,75.93
2023-04-30T06:21:59.321Z,76.10
2023-04-30T06:24:27.708Z,75.91
2023-04-30T06:26:55.503Z,75.74
2023-04-30T06:29:24.462Z,75.80
2023-04-30T06:31:52.403Z,75.15
2023-04-30T06:34:21.112Z,74.82
2023-04-30T06:36:48.862Z,74.62
2023-04-30T06:39:17.081Z,74.27
2023-04-30T06:41:44.974Z,74.58
2023-04-30T06:44:13.019Z,74.42
2023-04-30T06:46:41.108Z,74.53
2023-04-30T06:49:09.153Z,74.01
2023-04-30T06:51:36.632Z,72.01
2023-04-30T06:54:04.322Z,71.14
2023-04-30T06:56:32.101Z,69.46
2023-04-30T06:58:59.560Z,67.47
2023-04-30T07:01:27.089Z,65.92
2023-04-30T07:03:55.566Z,65.01
2023-04-30T07:06:23.383Z,63.87
2023-04-30T07:08:50.976Z,63.69
2023-04-30T07:11:18.770Z,64.10
2023-04-30T07:13:46.493Z,63.67
2023-04-30T07:16:14.512Z,63.14
2023-04-30T07:18:42.457Z,62.13
2023-04-30T07:21:10.382Z,62.04
2023-04-30T07:23:39.020Z,61.46
2023-04-30T07:26:06.882Z,60.91
2023-04-30T07:28:34.397Z,60.28
2023-04-30T07:31:02.163Z,60.40
2023-04-30T07:33:30.536Z,59.71
2023-04-30T07:35:59.119Z,58.91
2023-04-30T07:38:26.949Z,58.17
2023-04-30T07:40:54.820Z,58.16
2023-04-30T07:43:22.325Z,57.78
2023-04-30T07:45:50.891Z,57.63
2023-04-30T07:48:18.759Z,56.81
2023-04-30T07:50:49.461Z,55.77
2023-04-30T07:53:18.158Z,54.98
2023-04-30T07:55:46.184Z,55.18
2023-04-30T07:58:13.698Z,53.17
2023-04-30T08:00:41.276Z,53.29
2023-04-30T08:03:09.090Z,53.54
2023-04-30T08:05:36.964Z,51.69
2023-04-30T08:08:04.746Z,49.84
2023-04-30T08:10:32.591Z,49.69
2023-04-30T08:13:00.190Z,48.16
2023-04-30T08:15:28.823Z,48.19
2023-04-30T08:17:57.264Z,47.78
2023-04-30T08:20:24.972Z,47.85
2023-04-30T08:22:52.724Z,48.67
2023-04-30T08:25:20.840Z,48.34
2023-04-30T08:27:48.431Z,47.86
2023-04-30T08:30:16.088Z,48.14
2023-04-30T08:32:43.939Z,48.04
2023-04-30T08:35:11.593Z,47.63
2023-04-30T08:37:39.659Z,48.12
2023-04-30T08:40:09.782Z,47.88
2023-04-30T08:42:42.070Z,48.01
2023-04-30T08:45:12.956Z,47.69
2023-04-30T08:47:41.887Z,47.64
2023-04-30T08:50:09.844Z,46.84
2023-04-30T08:52:38.517Z,46.30
2023-04-30T08:55:08.358Z,45.74
2023-04-30T08:57:37.828Z,45.04
2023-04-30T09:00:07.103Z,44.91
2023-04-30T09:02:35.166Z,44.29
2023-04-30T09:05:03.248Z,44.74
2023-04-30T09:07:33.762Z,44.21
2023-04-30T09:10:01.229Z,45.00
2023-04-30T09:12:29.447Z,44.78
2023-04-30T09:15:06.647Z,43.45
2023-04-30T09:17:35.204Z,43.45
2023-04-30T09:20:11.256Z,43.50
2023-04-30T09:22:41.553Z,42.37
2023-04-30T09:25:09.869Z,41.13
2023-04-30T09:27:37.414Z,41.83
2023-04-30T09:30:05.931Z,42.40
2023-04-30T09:32:33.517Z,42.93
2023-04-30T09:35:01.044Z,42.39
2023-04-30T09:37:38.745Z,42.69
2023-04-30T09:40:07.164Z,42.14
2023-04-30T09:42:35.646Z,42.52
2023-04-30T09:45:05.325Z,42.36
2023-04-30T09:47:33.298Z,42.62
2023-04-30T09:50:01.174Z,41.05
2023-04-30T09:52:28.763Z,41.80
2023-04-30T09:54:56.366Z,41.73
2023-04-30T09:57:24.745Z,42.24
2023-04-30T09:59:53.450Z,41.47
2023-04-30T10:02:24.082Z,40.27
2023-04-30T10:04:56.671Z,40.83
2023-04-30T10:07:31.360Z,40.30
2023-04-30T10:10:07.681Z,40.14
2023-04-30T10:12:50.868Z,40.83
2023-04-30T10:15:28.440Z,40.74
2023-04-30T10:18:05.983Z,41.00
2023-04-30T10:20:39.267Z,41.11
2023-04-30T10:23:08.546Z,41.04
2023-04-30T10:25:39.053Z,41.41
2023-04-30T10:28:08.799Z,41.95
2023-04-30T10:30:36.584Z,41.43
2023-04-30T10:33:23.522Z,41.34
2023-04-30T10:36:02.658Z,41.26
2023-04-30T10:38:32.629Z,41.22
2023-04-30T10:41:03.898Z,40.02
2023-04-30T10:43:31.914Z,39.47
2023-04-30T10:46:00.164Z,38.64
2023-04-30T10:48:30.517Z,38.99
2023-04-30T10:50:59.539Z,38.65
2023-04-30T10:53:31.367Z,38.17
2023-04-30T10:56:09.158Z,38.07
2023-04-30T10:58:40.797Z,38.22
2023-04-30T11:01:17.818Z,37.81
2023-04-30T11:04:10.805Z,38.20
2023-04-30T11:06:56.243Z,37.86
2023-04-30T11:09:44.257Z,38.35
2023-04-30T11:12:14.420Z,38.84
2023-04-30T11:14:44.511Z,38.55
2023-04-30T11:17:14.035Z,38.05
2023-04-30T11:19:53.789Z,38.40
2023-04-30T11:22:25.443Z,39.02
2023-04-30T11:24:59.338Z,39.16
2023-04-30T11:27:28.655Z,39.82
2023-04-30T11:29:59.401Z,38.73
2023-04-30T11:32:34.933Z,37.85
2023-04-30T11:35:04.635Z,38.17
2023-04-30T11:37:33.957Z,38.11
2023-04-30T11:40:04.103Z,37.84
2023-04-30T11:42:34.776Z,36.26
2023-04-30T11:45:05.768Z,36.59
2023-04-30T11:47:45.783Z,36.81
2023-04-30T11:50:18.288Z,37.27
2023-04-30T11:52:50.867Z,37.71
2023-04-30T11:55:21.522Z,37.52
2023-04-30T11:57:52.204Z,38.04
2023-04-30T12:00:21.430Z,38.09
2023-04-30T12:02:50.265Z,38.30
2023-04-30T12:05:20.268Z,39.06
2023-04-30T12:07:50.002Z,38.83
2023-04-30T12:10:21.908Z,39.14
2023-04-30T12:12:52.797Z,39.45
2023-04-30T12:15:32.888Z,38.76
2023-04-30T12:18:11.285Z,38.93
2023-04-30T12:20:40.390Z,39.17
2023-04-30T12:23:08.589Z,39.81
2023-04-30T12:25:45.811Z,39.26
2023-04-30T12:28:13.960Z,39.40
2023-04-30T12:30:43.348Z,39.53
2023-04-30T12:33:11.501Z,38.86
2023-04-30T12:35:43.473Z,38.80
2023-04-30T12:38:11.358Z,39.09
2023-04-30T12:40:39.192Z,39.26
2023-04-30T12:43:08.367Z,39.39
2023-04-30T12:45:51.243Z,39.24
2023-04-30T12:48:21.407Z,39.06
2023-04-30T12:50:56.524Z,39.24
2023-04-30T12:53:24.652Z,39.36
2023-04-30T12:56:31.235Z,38.65
2023-04-30T12:58:59.050Z,38.81
2023-04-30T13:01:26.680Z,38.77
2023-04-30T13:03:54.473Z,38.50
2023-04-30T13:06:23.597Z,37.60
2023-04-30T13:08:58.436Z,37.53
2023-04-30T13:11:27.512Z,37.28
2023-04-30T13:13:55.929Z,36.69
2023-04-30T13:16:25.051Z,36.58
2023-04-30T13:18:53.618Z,36.15
2023-04-30T13:21:21.835Z,35.69
2023-04-30T13:23:53.600Z,36.23
2023-04-30T13:26:26.502Z,36.21
2023-04-30T13:28:54.396Z,36.97
2023-04-30T13:31:22.670Z,37.42
2023-04-30T13:33:50.921Z,37.61
2023-04-30T13:36:18.458Z,37.08
2023-04-30T13:38:46.470Z,37.59
2023-04-30T13:41:14.251Z,36.67
2023-04-30T13:43:42.963Z,36.04
2023-04-30T13:46:11.083Z,36.08
2023-04-30T13:48:38.708Z,36.42
2023-04-30T13:51:06.296Z,37.04
2023-04-30T13:53:34.168Z,37.37
2023-04-30T13:56:03.363Z,37.58
2023-04-30T13:58:30.872Z,37.94
2023-04-30T14:00:58.728Z,37.51
2023-04-30T14:03:27.155Z,37.63
2023-04-30T14:05:55.537Z,37.33
2023-04-30T14:08:23.630Z,37.64
2023-04-30T14:10:51.516Z,37.15
2023-04-30T14:13:18.996Z,37.31
2023-04-30T14:15:47.925Z,38.06
2023-04-30T14:18:15.709Z,37.38
2023-04-30T14:20:43.287Z,38.01
2023-04-30T14:23:10.877Z,38.39
2023-04-30T14:25:38.636Z,37.39
2023-04-30T14:28:06.023Z,37.28
2023-04-30T14:30:33.500Z,37.49
2023-04-30T14:33:01.354Z,37.17
2023-04-30T14:35:29.029Z,37.02
2023-04-30T14:37:56.518Z,38.13
2023-04-30T14:40:24.314Z,38.02
2023-04-30T14:42:51.870Z,37.98
2023-04-30T14:45:19.416Z,38.59
2023-04-30T14:47:47.340Z,38.82
2023-04-30T14:50:14.947Z,39.40
2023-04-30T14:52:42.416Z,39.26
2023-04-30T14:55:10.176Z,40.00
2023-04-30T14:57:37.698Z,40.02
2023-04-30T15:00:06.885Z,39.60
2023-04-30T15:02:34.745Z,39.84
2023-04-30T15:05:05.165Z,39.46
2023-04-30T15:07:32.697Z,39.62
2023-04-30T15:10:00.852Z,39.28
2023-04-30T15:12:28.465Z,38.77
2023-04-30T15:14:56.024Z,38.23
2023-04-30T15:17:24.366Z,38.57
2023-04-30T15:19:51.977Z,38.43
2023-04-30T15:22:19.533Z,38.40
2023-04-30T15:24:47.316Z,38.87
2023-04-30T15:27:14.823Z,38.72
2023-04-30T15:29:42.306Z,39.12
2023-04-30T15:32:10.129Z,39.14
2023-04-30T15:34:37.617Z,39.04
2023-04-30T15:37:05.923Z,38.87
2023-04-30T15:39:35.257Z,38.61
2023-04-30T15:42:03.320Z,38.60
2023-04-30T15:44:30.814Z,38.43
2023-04-30T15:46:58.743Z,38.35
2023-04-30T15:49:26.355Z,38.28
2023-04-30T15:51:53.883Z,38.50
2023-04-30T15:54:23.390Z,38.66
2023-04-30T15:56:51.695Z,38.04
2023-04-30T15:59:19.731Z,38.25
2023-04-30T16:01:47.883Z,38.50
2023-04-30T16:04:15.865Z,38.80
2023-04-30T16:06:43.504Z,38.40
2023-04-30T16:09:12.534Z,38.73
2023-04-30T16:11:40.651Z,39.07
2023-04-30T16:14:08.296Z,39.23
2023-04-30T16:16:36.040Z,39.74
2023-04-30T16:19:03.840Z,40.08
2023-04-30T16:21:34.598Z,40.33
2023-04-30T16:24:03.404Z,40.40
2023-04-30T16:26:31.365Z,40.21
2023-04-30T16:28:58.877Z,39.85
2023-04-30T16:31:26.589Z,39.96
2023-04-30T16:33:54.689Z,39.86
2023-04-30T16:36:22.641Z,39.48
2023-04-30T16:38:50.156Z,39.63
2023-04-30T16:41:17.972Z,39.43
2023-04-30T16:43:45.885Z,39.83
2023-04-30T16:46:15.721Z,39.87
2023-04-30T16:48:44.256Z,40.11
2023-04-30T16:51:11.812Z,39.99
2023-04-30T16:53:39.426Z,40.26
2023-04-30T16:56:07.342Z,40.62
2023-04-30T16:58:34.905Z,40.90
2023-04-30T17:01:02.518Z,40.87
2023-04-30T17:03:30.945Z,40.95
2023-04-30T17:05:58.559Z,41.44
2023-04-30T17:08:26.512Z,41.52
2023-04-30T17:10:55.265Z,41.70
2023-04-30T17:13:23.070Z,41.82
2023-04-30T17:15:50.649Z,42.07
2023-04-30T17:18:18.505Z,42.34
2023-04-30T17:20:46.611Z,42.80
2023-04-30T17:23:14.102Z,42.73
2023-04-30T17:25:43.015Z,42.91
2023-04-30T17:28:10.572Z,43.01
2023-04-30T17:30:38.820Z,43.14
2023-04-30T17:33:06.988Z,43.08
2023-04-30T17:35:34.562Z,43.34
2023-04-30T17:38:02.198Z,43.32
2023-04-30T17:40:31.498Z,43.44
2023-04-30T17:42:59.002Z,43.77
2023-04-30T17:45:26.945Z,44.21
2023-04-30T17:47:54.781Z,43.92
2023-04-30T17:50:22.423Z,44.28
2023-04-30T17:52:50.270Z,44.27
2023-04-30T17:55:18.236Z,44.64
2023-04-30T17:57:45.712Z,44.69
2023-04-30T18:00:14.120Z,44.56
2023-04-30T18:02:42.461Z,44.89
2023-04-30T18:05:11.732Z,45.11
2023-04-30T18:07:39.278Z,45.51
2023-04-30T18:10:08.301Z,45.63
2023-04-30T18:12:36.560Z,45.94
2023-04-30T18:15:05.823Z,46.29
2023-04-30T18:17:35.770Z,46.43
2023-04-30T18:20:05.392Z,46.56
2023-04-30T18:22:33.209Z,47.02
2023-04-30T18:25:00.725Z,47.32
2023-04-30T18:27:29.234Z,47.36
2023-04-30T18:29:57.227Z,47.60
2023-04-30T18:32:25.065Z,47.88
2023-04-30T18:34:52.674Z,48.05
2023-04-30T18:37:21.642Z,48.33
2023-04-30T18:39:51.287Z,48.83
2023-04-30T18:42:18.821Z,49.14
2023-04-30T18:44:46.700Z,49.30
2023-04-30T18:47:14.252Z,49.56
2023-04-30T18:49:43.152Z,49.76
2023-04-30T18:52:10.988Z,49.78
2023-04-30T18:54:38.575Z,49.95
2023-04-30T18:57:06.300Z,49.98
2023-04-30T18:59:34.178Z,50.21
2023-04-30T19:02:01.674Z,50.36
2023-04-30T19:04:29.220Z,50.29
2023-04-30T19:06:57.121Z,50.55
2023-04-30T19:09:24.687Z,50.72
2023-04-30T19:11:53.236Z,50.71
2023-04-30T19:14:21.059Z,51.10
2023-04-30T19:16:48.711Z,51.38
2023-04-30T19:19:16.356Z,51.60
2023-04-30T19:21:44.482Z,52.01
2023-04-30T19:24:12.178Z,52.24
2023-04-30T19:26:42.385Z,52.41
2023-04-30T19:29:10.452Z,52.70
2023-04-30T19:31:38.042Z,52.75
2023-04-30T19:34:05.624Z,52.89
2023-04-30T19:36:33.680Z,52.87
2023-04-30T19:39:01.265Z,52.68
2023-04-30T19:41:29.065Z,52.60
2023-04-30T19:43:56.903Z,52.70
2023-04-30T19:46:24.928Z,52.96
2023-04-30T19:48:52.517Z,53.08
2023-04-30T19:51:20.446Z,53.30
2023-04-30T19:53:48.053Z,53.49
2023-04-30T19:56:15.577Z,53.88
2023-04-30T19:58:44.807Z,53.98
2023-04-30T20:01:12.566Z,54.34
2023-04-30T20:03:42.409Z,54.31
2023-04-30T20:06:10.370Z,54.33
2023-04-30T20:08:37.859Z,54.36
2023-04-30T20:11:05.645Z,54.44
2023-04-30T20:13:33.210Z,54.55
2023-04-30T20:16:00.865Z,54.20
2023-04-30T20:18:28.718Z,54.39
2023-04-30T20:20:59.339Z,54.75
2023-04-30T20:23:26.854Z,54.83
2023-04-30T20:25:55.150Z,55.14
2023-04-30T20:28:22.685Z,55.11
2023-04-30T20:30:50.203Z,54.71
2023-04-30T20:33:18.918Z,54.65
2023-04-30T20:35:47.772Z,54.61
2023-04-30T20:38:19.530Z,54.52
2023-04-30T20:40:47.985Z,54.48
2023-04-30T20:43:16.852Z,54.67
2023-04-30T20:45:45.246Z,54.62
2023-04-30T20:48:13.182Z,54.78
2023-04-30T20:50:41.291Z,55.04
2023-04-30T20:53:11.069Z,55.05
2023-04-30T20:55:39.159Z,55.18
2023-04-30T20:58:08.933Z,55.08
2023-04-30T21:00:36.502Z,55.05
2023-04-30T21:03:04.708Z,54.88
2023-04-30T21:05:32.411Z,54.89
2023-04-30T21:08:01.687Z,54.91
2023-04-30T21:10:36.079Z,55.03
2023-04-30T21:13:05.361Z,55.24
2023-04-30T21:15:35.511Z,55.11
2023-04-30T21:18:03.397Z,54.96
2023-04-30T21:20:31.805Z,54.94
2023-04-30T21:22:59.820Z,55.33
2023-04-30T21:25:27.367Z,55.75
2023-04-30T21:27:55.391Z,55.81
2023-04-30T21:30:25.764Z,56.04
2023-04-30T21:32:58.791Z,56.12
2023-04-30T21:35:30.156Z,56.51
2023-04-30T21:37:57.593Z,57.09
2023-04-30T21:40:25.068Z,58.08
2023-04-30T21:42:52.949Z,57.90
2023-04-30T21:45:20.481Z,58.18
2023-04-30T21:47:48.596Z,58.22
2023-04-30T21:50:17.043Z,57.99
2023-04-30T21:52:44.595Z,58.90
2023-04-30T21:55:12.428Z,59.13
2023-04-30T21:57:40.612Z,59.32
2023-04-30T22:00:14.346Z,59.58
2023-04-30T22:02:49.052Z,59.63
2023-04-30T22:05:18.139Z,59.19
2023-04-30T22:07:46.763Z,58.91
2023-04-30T22:10:17.383Z,58.89
2023-04-30T22:12:47.727Z,58.66
2023-04-30T22:15:15.808Z,58.45
2023-04-30T22:17:43.407Z,58.27
2023-04-30T22:20:11.642Z,58.19
2023-04-30T22:22:39.538Z,58.24
2023-04-30T22:25:09.102Z,58.28
2023-04-30T22:27:37.220Z,58.07
2023-04-30T22:30:06.177Z,58.14
2023-04-30T22:32:34.466Z,58.01
2023-04-30T22:35:03.390Z,58.05
2023-04-30T22:37:31.371Z,58.39
2023-04-30T22:39:59.224Z,58.42
2023-04-30T22:42:27.198Z,58.41
2023-04-30T22:44:54.923Z,58.77
2023-04-30T22:47:22.788Z,58.75
2023-04-30T22:49:50.670Z,59.24
2023-04-30T22:52:18.257Z,59.14
2023-04-30T22:54:47.338Z,59.57
2023-04-30T22:57:15.181Z,59.63
2023-04-30T22:59:42.773Z,60.25
2023-04-30T23:02:10.251Z,60.59
2023-04-30T23:04:38.395Z,61.67
2023-04-30T23:07:06.284Z,61.99
2023-04-30T23:09:33.943Z,62.23
2023-04-30T23:12:02.494Z,62.48
2023-04-30T23:14:30.241Z,62.85
2023-04-30T23:16:57.794Z,63.94
2023-04-30T23:19:25.602Z,63.84
2023-04-30T23:21:53.391Z,64.39
2023-04-30T23:24:20.830Z,65.29
2023-04-30T23:26:48.649Z,65.96
2023-04-30T23:29:16.415Z,66.27
2023-04-30T23:31:43.864Z,66.74
2023-04-30T23:34:12.559Z,66.99
2023-04-30T23:36:40.180Z,67.31
2023-04-30T23:39:07.643Z,67.68
2023-04-30T23:41:35.478Z,67.88
2023-04-30T23:44:02.987Z,68.00
2023-04-30T23:46:30.529Z,68.15
2023-04-30T23:48:58.626Z,68.57
2023-04-30T23:51:26.132Z,68.96
2023-04-30T23:53:53.878Z,68.93
2023-04-30T23:56:22.105Z,69.28
2023-04-30T23:58:49.573Z,69.30
